createdAt,value
2023-05-23T00:03:56.662Z,76.00
2023-05-23T00:14:34.161Z,77.50
2023-05-23T00:25:11.912Z,77.20
2023-05-23T00:35:46.929Z,78.60
2023-05-23T00:46:21.967Z,79.80
2023-05-23T00:56:57.473Z,77.20
2023-05-23T01:07:32.999Z,80.30
2023-05-23T01:18:22.680Z,80.40
2023-05-23T01:29:10.695Z,82.20
2023-05-23T01:39:45.912Z,81.70
2023-05-23T01:50:20.852Z,80.30
2023-05-23T02:00:56.308Z,81.60
2023-05-23T02:11:31.052Z,81.60
2023-05-23T02:22:05.874Z,81.50
2023-05-23T02:32:41.374Z,86.30
2023-05-23T02:43:16.160Z,84.00
2023-05-23T02:53:51.418Z,88.90
2023-05-23T03:04:27.902Z,94.90
2023-05-23T03:15:02.770Z,95.30
2023-05-23T03:25:37.588Z,96.20
2023-05-23T03:36:13.153Z,94.50
2023-05-23T03:46:48.187Z,91.30
2023-05-23T03:57:24.730Z,85.60
2023-05-23T04:08:01.568Z,82.20
2023-05-23T04:18:39.482Z,81.50
2023-05-23T04:29:16.507Z,83.70
2023-05-23T04:39:52.442Z,82.40
2023-05-23T04:50:47.732Z,83.80
2023-05-23T05:01:25.997Z,82.90
2023-05-23T05:12:02.294Z,79.80
2023-05-23T05:22:41.194Z,79.00
2023-05-23T05:33:19.285Z,77.50
2023-05-23T05:43:54.981Z,74.50
2023-05-23T05:54:29.928Z,65.70
2023-05-23T06:05:06.761Z,56.00
2023-05-23T06:15:41.726Z,47.80
2023-05-23T06:26:16.540Z,46.20
2023-05-23T06:36:51.342Z,44.20
2023-05-23T06:47:28.715Z,46.20
2023-05-23T06:58:06.619Z,46.10
2023-05-23T07:08:43.896Z,39.40
2023-05-23T07:19:19.048Z,37.80
2023-05-23T07:29:57.848Z,39.10
2023-05-23T07:40:33.455Z,37.40
2023-05-23T07:51:08.531Z,34.70
2023-05-23T08:01:45.123Z,32.30
2023-05-23T08:12:25.618Z,29.40
2023-05-23T08:23:09.031Z,28.00
2023-05-23T08:33:45.014Z,25.90
2023-05-23T08:44:20.792Z,21.60
2023-05-23T08:55:02.671Z,22.00
2023-05-23T09:05:39.446Z,23.80
2023-05-23T09:16:20.563Z,22.00
2023-05-23T09:27:05.477Z,20.00
2023-05-23T09:37:46.270Z,18.20
2023-05-23T09:48:28.296Z,21.10
2023-05-23T09:59:04.088Z,16.80
2023-05-23T10:09:42.361Z,17.60
2023-05-23T10:20:18.086Z,12.20
2023-05-23T10:30:52.893Z,12.80
2023-05-23T10:41:47.754Z,12.60
2023-05-23T10:52:28.140Z,16.20
2023-05-23T11:03:09.327Z,1.00
2023-05-23T11:13:55.718Z,1.00
2023-05-23T11:24:53.754Z,1.00
2023-05-23T11:35:31.363Z,1.00
2023-05-23T11:46:10.606Z,1.00
2023-05-23T11:56:45.757Z,1.00
2023-05-23T12:07:21.631Z,1.00
2023-05-23T12:17:57.252Z,1.00
2023-05-23T12:28:39.773Z,1.00
2023-05-23T12:39:14.618Z,1.00
2023-05-23T12:49:50.138Z,1.00
2023-05-23T13:00:25.047Z,1.00
2023-05-23T13:11:00.088Z,1.00
2023-05-23T13:21:35.368Z,1.00
2023-05-23T13:32:10.207Z,1.00
2023-05-23T13:42:45.715Z,1.00
2023-05-23T13:53:21.854Z,1.00
2023-05-23T14:03:56.872Z,1.00
2023-05-23T14:14:32.053Z,1.00
2023-05-23T14:25:07.416Z,1.00
2023-05-23T14:35:43.528Z,1.00
2023-05-23T14:46:19.063Z,1.00
2023-05-23T14:56:54.266Z,1.00
2023-05-23T15:07:29.181Z,1.00
2023-05-23T15:18:07.191Z,1.00
2023-05-23T15:28:42.472Z,1.00
2023-05-23T15:39:18.388Z,1.00
2023-05-23T15:49:53.474Z,1.00
2023-05-23T16:00:28.761Z,1.00
2023-05-23T16:11:03.844Z,1.00
2023-05-23T16:21:38.624Z,1.00
2023-05-23T16:32:15.755Z,1.00
2023-05-23T16:42:50.926Z,1.00
2023-05-23T16:53:25.937Z,1.00
2023-05-23T17:04:01.224Z,1.00
2023-05-23T17:14:36.176Z,1.00
2023-05-23T17:25:11.122Z,1.00
2023-05-23T17:35:46.981Z,1.00
2023-05-23T17:46:22.007Z,1.00
2023-05-23T17:56:57.082Z,1.00
2023-05-23T18:07:32.511Z,1.00
2023-05-23T18:18:07.661Z,1.00
2023-05-23T18:28:43.054Z,1.00
2023-05-23T18:39:19.760Z,1.00
2023-05-23T18:49:55.060Z,1.00
2023-05-23T19:00:29.853Z,1.00
2023-05-23T19:11:06.106Z,1.00
2023-05-23T19:21:41.437Z,1.00
2023-05-23T19:32:16.827Z,1.00
2023-05-23T19:42:52.092Z,1.00
2023-05-23T19:53:27.014Z,1.00
2023-05-23T20:04:01.951Z,1.00
2023-05-23T20:14:36.770Z,1.00
2023-05-23T20:25:11.527Z,1.00
2023-05-23T20:35:48.648Z,1.00
2023-05-23T20:46:23.716Z,1.00
2023-05-23T20:56:59.161Z,1.00
2023-05-23T21:07:34.727Z,1.00
2023-05-23T21:18:09.693Z,1.00
2023-05-23T21:28:44.365Z,1.00
2023-05-23T21:39:20.836Z,1.00
2023-05-23T21:49:56.031Z,1.00
2023-05-23T22:00:31.342Z,1.00
2023-05-23T22:11:09.678Z,1.00
2023-05-23T22:21:44.496Z,1.00
2023-05-23T22:32:19.368Z,1.00
2023-05-23T22:42:54.434Z,1.00
2023-05-23T22:53:29.681Z,1.00
2023-05-23T23:04:04.608Z,1.00
2023-05-23T23:14:39.370Z,1.00
2023-05-23T23:25:14.433Z,1.00
2023-05-23T23:35:51.925Z,1.00
2023-05-23T23:46:27.532Z,1.00
2023-05-23T23:57:02.459Z,1.00
